Time;durP1;ratioP1;P1;durP2;ratioP2;P2;SDS_P1;SDS_P2;PMS_P1;PMS_P2;Temp;Humidity;BMP_temperature;BMP_pressure;BME280_temperature;BME280_humidity;BME280_pressure;Samples;Min_cycle;Max_cycle;Signal;HPM_P1;HPM_P2
2022/10/17 00:01:07;;;;;;;34.63;30.95;;;13.10;99.90;;;;;;5016087;28;20215;-90
2022/10/17 00:03:38;;;;;;;34.10;30.52;;;13.10;99.90;;;;;;5016308;28;20218;-90
2022/10/17 00:06:08;;;;;;;32.97;29.58;;;13.10;99.90;;;;;;5015831;28;20206;-90
2022/10/17 00:08:38;;;;;;;37.70;31.05;;;13.00;99.90;;;;;;5017424;28;20254;-89
2022/10/17 00:11:07;;;;;;;35.33;31.40;;;13.00;99.90;;;;;;5017709;28;20234;-90
2022/10/17 00:13:36;;;;;;;30.35;27.33;;;12.90;99.90;;;;;;5016006;28;20218;-90
2022/10/17 00:16:04;;;;;;;35.17;29.17;;;12.90;99.90;;;;;;5015323;28;20215;-90
2022/10/17 00:18:32;;;;;;;30.63;27.63;;;12.80;99.90;;;;;;5015799;28;20234;-90
2022/10/17 00:21:02;;;;;;;31.30;28.23;;;12.80;99.90;;;;;;5015898;28;20207;-90
2022/10/17 00:23:30;;;;;;;31.40;28.55;;;12.80;99.90;;;;;;5016240;28;20211;-90
2022/10/17 00:25:59;;;;;;;35.28;31.52;;;12.80;99.90;;;;;;5015838;28;20206;-89
2022/10/17 00:28:28;;;;;;;35.40;31.63;;;12.80;99.90;;;;;;5015824;28;20223;-90
2022/10/17 00:30:57;;;;;;;37.45;30.88;;;12.80;99.90;;;;;;5015340;28;20219;-89
2022/10/17 00:33:25;;;;;;;32.92;29.45;;;12.80;99.90;;;;;;5015128;28;20218;-90
2022/10/17 00:36:05;;;;;;;33.30;30.00;;;12.70;99.90;;;;;;5015546;28;20230;-90
2022/10/17 00:38:34;;;;;;;33.85;28.92;;;12.80;99.90;;;;;;5015497;28;20238;-90
2022/10/17 00:41:02;;;;;;;32.92;29.55;;;12.70;99.90;;;;;;5015442;28;20248;-90
2022/10/17 00:43:49;;;;;;;42.45;32.17;;;12.80;99.90;;;;;;5015305;28;20219;-90
2022/10/17 00:46:18;;;;;;;34.88;31.17;;;12.70;99.90;;;;;;5015400;28;20199;-90
2022/10/17 00:48:48;;;;;;;34.33;30.80;;;12.70;99.90;;;;;;5015028;28;20231;-90
2022/10/17 00:51:22;;;;;;;32.75;29.20;;;12.70;99.90;;;;;;5015539;28;20215;-90
2022/10/17 00:53:51;;;;;;;37.92;30.58;;;12.60;99.90;;;;;;5015248;28;20206;-91
2022/10/17 00:56:20;;;;;;;39.42;32.05;;;12.60;99.90;;;;;;5015275;28;20213;-91
2022/10/17 00:58:49;;;;;;;39.50;31.00;;;12.60;99.90;;;;;;5014624;28;20227;-91
2022/10/17 01:01:17;;;;;;;35.53;31.90;;;12.60;99.90;;;;;;5015266;28;20230;-91
2022/10/17 01:03:46;;;;;;;37.15;32.80;;;12.60;99.90;;;;;;5015004;28;20215;-90
2022/10/17 01:06:14;;;;;;;34.95;30.73;;;12.60;99.90;;;;;;5015239;28;20207;-90
2022/10/17 01:08:44;;;;;;;34.00;30.35;;;12.60;99.90;;;;;;5014819;28;20231;-90
2022/10/17 01:11:26;;;;;;;32.65;29.17;;;12.60;99.90;;;;;;5017143;28;20214;-90
2022/10/17 01:14:01;;;;;;;36.20;32.30;;;12.60;99.90;;;;;;5022380;28;20203;-89
2022/10/17 01:16:39;;;;;;;37.47;33.65;;;12.60;99.90;;;;;;5021146;28;20218;-90
2022/10/17 01:19:39;;;;;;;34.75;31.02;;;12.50;99.90;;;;;;5020198;28;20211;-90
2022/10/17 01:22:10;;;;;;;35.50;31.55;;;12.50;99.90;;;;;;5011422;28;20206;-92
2022/10/17 01:25:09;;;;;;;36.60;32.47;;;12.50;99.90;;;;;;5015300;28;20290;-89
2022/10/17 01:27:47;;;;;;;34.90;31.08;;;12.50;99.90;;;;;;5009810;28;20227;-90
2022/10/17 01:30:45;;;;;;;33.45;29.77;;;12.40;99.90;;;;;;5014567;28;20210;-90
2022/10/17 01:33:20;;;;;;;35.35;31.48;;;12.50;99.90;;;;;;5013610;28;20219;-90
2022/10/17 01:35:53;;;;;;;37.95;30.98;;;12.40;99.90;;;;;;5014644;28;20217;-90
2022/10/17 01:38:27;;;;;;;36.28;32.35;;;12.40;99.90;;;;;;5014216;28;20227;-89
2022/10/17 01:41:03;;;;;;;32.75;29.42;;;12.40;99.90;;;;;;5014436;28;20214;-90
2022/10/17 01:43:37;;;;;;;34.05;30.45;;;12.30;99.90;;;;;;5014661;28;20221;-90
2022/10/17 01:46:11;;;;;;;35.42;31.70;;;12.30;99.90;;;;;;5014424;28;20210;-90
2022/10/17 01:48:45;;;;;;;38.67;31.45;;;12.30;99.90;;;;;;5014354;28;20227;-90
2022/10/17 01:51:18;;;;;;;34.80;31.23;;;12.30;99.90;;;;;;5014486;28;20210;-91
2022/10/17 01:53:52;;;;;;;34.80;31.30;;;12.30;99.90;;;;;;5013839;28;20218;-91
2022/10/17 01:56:22;;;;;;;39.17;31.90;;;12.30;99.90;;;;;;5014021;28;20203;-91
2022/10/17 01:58:55;;;;;;;35.20;31.58;;;12.30;99.90;;;;;;5013974;28;20219;-90
2022/10/17 02:01:26;;;;;;;37.90;32.38;;;12.20;99.90;;;;;;5014312;28;20226;-90
2022/10/17 02:04:00;;;;;;;35.40;31.65;;;12.20;99.90;;;;;;5014287;28;20201;-90
2022/10/17 02:06:28;;;;;;;32.00;28.52;;;12.20;99.90;;;;;;5014112;28;20201;-90
2022/10/17 02:08:56;;;;;;;34.65;30.77;;;12.20;99.90;;;;;;5013973;28;20229;-90
2022/10/17 02:11:27;;;;;;;33.63;30.13;;;12.20;99.90;;;;;;5014046;28;20210;-90
2022/10/17 02:14:13;;;;;;;31.58;28.48;;;12.10;99.90;;;;;;5014023;28;20230;-90
2022/10/17 02:16:47;;;;;;;35.92;31.52;;;12.10;99.90;;;;;;5014207;28;20207;-90
2022/10/17 02:19:35;;;;;;;40.35;31.45;;;12.10;99.90;;;;;;5013536;28;20217;-89
2022/10/17 02:22:15;;;;;;;34.38;30.92;;;12.10;99.90;;;;;;5014104;28;20209;-90
2022/10/17 02:24:50;;;;;;;35.10;31.55;;;12.10;99.90;;;;;;5013760;28;20203;-89
2022/10/17 02:27:31;;;;;;;41.90;32.45;;;12.10;99.90;;;;;;5013571;28;20233;-89
2022/10/17 02:30:06;;;;;;;34.53;31.15;;;12.10;99.90;;;;;;5013487;28;20199;-90
2022/10/17 02:32:40;;;;;;;51.63;33.10;;;12.10;99.90;;;;;;5013162;28;20227;-91
2022/10/17 02:35:15;;;;;;;34.70;31.10;;;12.10;99.90;;;;;;5013652;28;20233;-92
2022/10/17 02:37:45;;;;;;;34.38;30.75;;;12.00;99.90;;;;;;5013517;28;20235;-90
2022/10/17 02:40:16;;;;;;;38.22;34.15;;;12.00;99.90;;;;;;5015608;28;20218;-92
2022/10/17 02:42:46;;;;;;;41.40;32.63;;;12.00;99.90;;;;;;5016342;28;20217;-90
2022/10/17 02:45:15;;;;;;;36.20;32.47;;;12.00;99.90;;;;;;5013722;28;20214;-90
2022/10/17 02:47:52;;;;;;;35.00;31.45;;;12.00;99.90;;;;;;5013416;28;20227;-90
2022/10/17 02:50:28;;;;;;;41.35;32.60;;;12.00;99.90;;;;;;5012761;28;20206;-90
2022/10/17 02:53:01;;;;;;;39.10;34.00;;;12.00;99.90;;;;;;5014020;28;20297;-90
2022/10/17 02:55:32;;;;;;;41.65;32.95;;;12.00;99.90;;;;;;5013687;28;20207;-90
2022/10/17 02:58:06;;;;;;;45.90;34.40;;;11.90;99.90;;;;;;5013522;28;20229;-92
2022/10/17 03:00:35;;;;;;;44.83;34.53;;;11.90;99.90;;;;;;5013182;28;20218;-90
2022/10/17 03:03:19;;;;;;;34.55;31.20;;;11.90;99.90;;;;;;5013295;28;20207;-91
2022/10/17 03:05:49;;;;;;;44.95;35.72;;;11.90;99.90;;;;;;5014016;28;20210;-90
2022/10/17 03:08:17;;;;;;;38.45;33.00;;;11.90;99.90;;;;;;5017691;28;20226;-91
2022/10/17 03:10:45;;;;;;;36.10;32.53;;;11.80;99.90;;;;;;5017111;28;20218;-90
2022/10/17 03:13:14;;;;;;;59.90;34.38;;;11.80;99.90;;;;;;5016946;28;20215;-90
2022/10/17 03:15:42;;;;;;;43.35;33.63;;;11.80;99.90;;;;;;5016922;28;20209;-90
2022/10/17 03:18:10;;;;;;;36.55;32.83;;;11.80;99.90;;;;;;5016988;28;20234;-90
2022/10/17 03:20:39;;;;;;;36.80;33.00;;;11.80;99.90;;;;;;5016917;28;20210;-90
2022/10/17 03:23:08;;;;;;;34.67;31.08;;;11.80;99.90;;;;;;5016811;28;20209;-90
2022/10/17 03:25:37;;;;;;;35.15;31.58;;;11.80;99.90;;;;;;5017093;28;20211;-88
2022/10/17 03:28:05;;;;;;;40.00;31.20;;;11.80;99.90;;;;;;5017148;28;20227;-89
2022/10/17 03:30:34;;;;;;;34.22;30.83;;;11.80;99.90;;;;;;5016561;28;20214;-90
2022/10/17 03:33:02;;;;;;;38.03;34.22;;;11.70;99.90;;;;;;5016199;28;20219;-91
2022/10/17 03:35:30;;;;;;;38.47;32.67;;;11.80;99.90;;;;;;5016934;28;20207;-90
2022/10/17 03:37:59;;;;;;;38.00;34.08;;;11.70;99.90;;;;;;5016970;28;20238;-89
2022/10/17 03:40:28;;;;;;;39.03;34.38;;;11.70;99.90;;;;;;5016738;28;20215;-89
2022/10/17 03:42:57;;;;;;;41.92;32.35;;;11.70;99.90;;;;;;5016760;28;20210;-89
2022/10/17 03:45:25;;;;;;;36.88;32.75;;;11.80;99.90;;;;;;5016764;28;20217;-89
2022/10/17 03:47:53;;;;;;;36.47;32.78;;;11.70;99.90;;;;;;5016549;28;20243;-89
2022/10/17 03:50:22;;;;;;;38.22;34.17;;;11.80;99.90;;;;;;5016179;28;20214;-89
2022/10/17 03:52:50;;;;;;;38.97;34.80;;;11.70;99.90;;;;;;5016321;28;20211;-89
2022/10/17 03:55:18;;;;;;;37.75;33.78;;;11.80;99.90;;;;;;5018121;28;20215;-89
2022/10/17 03:57:48;;;;;;;40.30;36.00;;;11.80;99.90;;;;;;5017869;28;20231;-88
2022/10/17 04:00:16;;;;;;;40.63;34.80;;;11.70;99.90;;;;;;5015966;28;20203;-89
2022/10/17 04:02:44;;;;;;;43.17;35.70;;;11.70;99.90;;;;;;5016346;28;20222;-89
2022/10/17 04:05:12;;;;;;;40.53;34.13;;;11.70;99.90;;;;;;5016670;28;20217;-89
2022/10/17 04:07:40;;;;;;;35.53;32.10;;;11.60;99.90;;;;;;5016234;28;20231;-89
2022/10/17 04:10:09;;;;;;;35.63;32.00;;;11.60;99.90;;;;;;5015895;28;20211;-88
2022/10/17 04:12:38;;;;;;;37.88;33.90;;;11.60;99.90;;;;;;5015909;28;20204;-89
2022/10/17 04:15:09;;;;;;;37.63;31.85;;;11.60;99.90;;;;;;5015139;28;20237;-90
2022/10/17 04:17:40;;;;;;;36.40;32.63;;;11.60;99.90;;;;;;5015495;28;20231;-90
2022/10/17 04:20:09;;;;;;;37.47;32.63;;;11.60;99.90;;;;;;5016158;28;20209;-90
2022/10/17 04:22:37;;;;;;;37.63;33.72;;;11.60;99.90;;;;;;5015712;28;20203;-90
2022/10/17 04:25:07;;;;;;;40.05;32.55;;;11.60;99.90;;;;;;5015511;28;20255;-90
2022/10/17 04:27:35;;;;;;;35.20;31.40;;;11.60;99.90;;;;;;5015658;28;20231;-90
2022/10/17 04:30:03;;;;;;;36.20;32.28;;;11.60;99.90;;;;;;5015835;28;20216;-90
2022/10/17 04:32:37;;;;;;;36.47;32.72;;;11.60;99.90;;;;;;5015359;28;20214;-89
2022/10/17 04:35:06;;;;;;;36.67;32.85;;;11.60;99.90;;;;;;5015215;28;20227;-90
2022/10/17 04:37:34;;;;;;;39.63;32.85;;;11.60;99.90;;;;;;5015753;28;20271;-89
2022/10/17 04:40:03;;;;;;;36.92;33.10;;;11.50;99.90;;;;;;5015202;28;20222;-89
2022/10/17 04:42:31;;;;;;;38.97;34.90;;;11.60;99.90;;;;;;5015309;28;20211;-89
2022/10/17 04:45:00;;;;;;;44.75;33.92;;;11.50;99.90;;;;;;5015799;28;20230;-89
2022/10/17 04:47:28;;;;;;;37.47;33.65;;;11.50;99.90;;;;;;5015102;28;20323;-89
2022/10/17 04:49:57;;;;;;;35.67;32.08;;;11.50;99.90;;;;;;5015233;28;20218;-89
2022/10/17 04:52:26;;;;;;;37.75;33.70;;;11.50;99.90;;;;;;5015100;28;20203;-89
2022/10/17 04:54:54;;;;;;;39.00;32.90;;;11.50;99.90;;;;;;5015069;28;20285;-90
2022/10/17 04:57:23;;;;;;;39.25;32.63;;;11.50;99.90;;;;;;5015339;28;20313;-89
2022/10/17 04:59:57;;;;;;;39.03;32.22;;;11.50;99.90;;;;;;5015115;28;20199;-89
2022/10/17 05:02:30;;;;;;;37.25;33.28;;;11.50;99.90;;;;;;5032160;28;20194;-89
2022/10/17 05:05:00;;;;;;;38.40;33.33;;;11.50;99.90;;;;;;5035914;28;20259;-92
2022/10/17 05:07:29;;;;;;;35.85;32.05;;;11.50;99.90;;;;;;5022433;28;20218;-89
2022/10/17 05:09:57;;;;;;;40.92;33.55;;;11.50;99.90;;;;;;5038526;28;20209;-89
2022/10/17 05:12:26;;;;;;;36.78;32.60;;;11.50;99.90;;;;;;5037502;28;20213;-88
2022/10/17 05:14:54;;;;;;;39.20;31.48;;;11.50;99.90;;;;;;5036673;28;20230;-88
2022/10/17 05:17:23;;;;;;;36.92;32.45;;;11.60;99.90;;;;;;5034696;28;20222;-89
2022/10/17 05:19:51;;;;;;;35.47;31.75;;;11.60;99.90;;;;;;5034918;28;20210;-89
2022/10/17 05:22:21;;;;;;;46.97;33.80;;;11.60;99.90;;;;;;5034447;28;20217;-91
2022/10/17 05:24:49;;;;;;;38.22;30.02;;;11.50;99.90;;;;;;5035322;28;20210;-88
2022/10/17 05:27:17;;;;;;;36.92;33.03;;;11.60;99.90;;;;;;5034131;28;20234;-89
2022/10/17 05:29:46;;;;;;;33.97;30.40;;;11.50;99.90;;;;;;5016912;28;20207;-90
2022/10/17 05:32:15;;;;;;;41.65;31.58;;;11.50;99.90;;;;;;5025320;28;20206;-89
2022/10/17 05:34:43;;;;;;;36.72;32.83;;;11.60;99.90;;;;;;5033970;28;20219;-88
2022/10/17 05:37:11;;;;;;;38.42;31.20;;;11.60;99.90;;;;;;5019761;28;20226;-86
2022/10/17 05:39:41;;;;;;;34.92;31.42;;;11.60;99.90;;;;;;5014556;28;20203;-87
2022/10/17 05:42:09;;;;;;;35.72;31.58;;;11.60;99.90;;;;;;5013807;28;20215;-90
2022/10/17 05:44:38;;;;;;;36.08;32.35;;;11.60;99.90;;;;;;5014350;28;20200;-90
2022/10/17 05:47:06;;;;;;;37.58;31.77;;;11.60;99.90;;;;;;5014374;28;20218;-93
2022/10/17 05:49:35;;;;;;;33.08;29.65;;;11.70;99.90;;;;;;5013722;28;20213;-93
2022/10/17 05:52:19;;;;;;;32.95;29.42;;;11.70;99.90;;;;;;5013604;28;20217;-93
2022/10/17 05:54:49;;;;;;;32.88;28.88;;;11.70;99.90;;;;;;5013870;28;20235;-93
2022/10/17 05:57:17;;;;;;;32.92;28.90;;;11.80;99.90;;;;;;5013677;28;20223;-93
2022/10/17 05:59:45;;;;;;;35.05;29.10;;;11.80;99.90;;;;;;5013483;28;20217;-92
2022/10/17 06:02:14;;;;;;;32.53;29.05;;;11.80;99.90;;;;;;5013847;28;20203;-93
2022/10/17 06:04:44;;;;;;;31.08;26.23;;;11.80;99.90;;;;;;5013545;28;20267;-93
2022/10/17 06:07:13;;;;;;;32.63;29.10;;;11.80;99.90;;;;;;5013810;28;20233;-93
2022/10/17 06:09:41;;;;;;;31.35;27.83;;;11.90;99.90;;;;;;5013750;28;20211;-93
2022/10/17 06:12:11;;;;;;;31.35;28.13;;;11.90;99.90;;;;;;5014071;28;20214;-94
2022/10/17 06:14:39;;;;;;;30.40;27.33;;;11.90;99.90;;;;;;5014124;28;20227;-93
2022/10/17 06:17:08;;;;;;;33.70;29.27;;;11.90;99.90;;;;;;5013718;28;20229;-93
2022/10/17 06:19:43;;;;;;;29.75;26.52;;;12.00;99.90;;;;;;5013436;28;20206;-93
2022/10/17 06:22:12;;;;;;;28.65;25.65;;;12.00;99.90;;;;;;5013781;28;20211;-94
2022/10/17 06:24:41;;;;;;;35.40;27.95;;;12.00;99.90;;;;;;5024135;28;20194;-93
2022/10/17 06:27:10;;;;;;;30.85;27.33;;;12.00;99.90;;;;;;5017792;28;20310;-94
2022/10/17 06:29:39;;;;;;;31.05;24.83;;;12.00;99.90;;;;;;5013356;28;20203;-93
2022/10/17 06:32:07;;;;;;;28.48;25.73;;;12.10;99.90;;;;;;5012925;28;20207;-94
2022/10/17 06:34:41;;;;;;;26.15;23.58;;;12.10;99.90;;;;;;5013041;28;20254;-94
2022/10/17 06:37:09;;;;;;;28.27;24.63;;;12.10;99.90;;;;;;5013030;28;20234;-93
2022/10/17 06:39:38;;;;;;;32.28;23.65;;;12.10;99.90;;;;;;5012778;28;20214;-93
2022/10/17 06:42:06;;;;;;;25.27;22.02;;;12.10;99.90;;;;;;5018087;28;20221;-93
2022/10/17 06:44:35;;;;;;;27.40;24.48;;;12.20;99.90;;;;;;5019763;28;20202;-93
2022/10/17 06:47:04;;;;;;;25.27;22.85;;;12.20;99.90;;;;;;5019632;28;20222;-93
2022/10/17 06:49:33;;;;;;;31.02;23.63;;;12.20;99.90;;;;;;5019406;28;20224;-93
2022/10/17 06:52:01;;;;;;;27.00;22.73;;;12.20;99.90;;;;;;5019472;28;20215;-93
2022/10/17 06:54:30;;;;;;;24.05;21.55;;;12.30;99.90;;;;;;5019783;28;20203;-93
2022/10/17 06:56:58;;;;;;;25.55;22.77;;;12.40;99.90;;;;;;5019732;28;20207;-93
2022/10/17 06:59:26;;;;;;;26.08;22.20;;;12.30;99.90;;;;;;5019482;28;20207;-93
2022/10/17 07:01:56;;;;;;;24.02;21.70;;;12.40;99.90;;;;;;5019562;28;20213;-94
2022/10/17 07:04:24;;;;;;;23.50;21.23;;;12.40;99.90;;;;;;5019103;28;20218;-93
2022/10/17 07:06:53;;;;;;;25.88;23.15;;;12.50;99.90;;;;;;5019238;28;20210;-92
2022/10/17 07:09:21;;;;;;;22.27;20.17;;;12.50;99.90;;;;;;5019559;28;20265;-94
2022/10/17 07:11:49;;;;;;;26.63;21.20;;;12.50;99.90;;;;;;5019538;28;20215;-93
2022/10/17 07:14:18;;;;;;;25.10;22.50;;;12.60;99.90;;;;;;5019392;28;20214;-93
2022/10/17 07:16:46;;;;;;;23.88;21.60;;;12.70;99.90;;;;;;5019035;28;20223;-93
2022/10/17 07:19:16;;;;;;;25.88;22.13;;;12.70;99.90;;;;;;5018948;28;20207;-94
2022/10/17 07:21:44;;;;;;;23.08;20.70;;;12.70;99.90;;;;;;5019424;28;20203;-89
2022/10/17 07:24:13;;;;;;;25.30;21.55;;;12.70;99.90;;;;;;5019307;28;20210;-89
2022/10/17 07:26:41;;;;;;;22.38;19.98;;;12.80;99.90;;;;;;5018909;28;20203;-88
2022/10/17 07:29:09;;;;;;;23.33;20.92;;;12.90;99.90;;;;;;5018731;28;20211;-88
2022/10/17 07:31:38;;;;;;;23.65;21.20;;;13.00;99.90;;;;;;5019185;28;20219;-88
2022/10/17 07:34:06;;;;;;;23.15;20.90;;;13.00;99.90;;;;;;5020719;28;20218;-93
2022/10/17 07:36:36;;;;;;;23.63;21.27;;;13.10;99.90;;;;;;5029157;28;20289;-94
2022/10/17 07:39:05;;;;;;;23.75;21.25;;;13.20;99.90;;;;;;5019449;28;20249;-92
2022/10/17 07:41:34;;;;;;;27.55;20.10;;;13.30;99.90;;;;;;5019275;28;20215;-93
2022/10/17 07:44:02;;;;;;;35.13;23.60;;;13.30;99.90;;;;;;5019218;28;20219;-93
2022/10/17 07:46:30;;;;;;;23.70;20.23;;;13.40;99.90;;;;;;5019323;28;20210;-94
2022/10/17 07:48:58;;;;;;;25.73;20.95;;;13.50;99.90;;;;;;5019044;28;20230;-94
2022/10/17 07:51:27;;;;;;;26.08;21.45;;;13.60;99.90;;;;;;5019504;28;20214;-94
2022/10/17 07:53:57;;;;;;;26.35;19.70;;;13.60;99.90;;;;;;5015318;28;20207;-93
2022/10/17 07:56:25;;;;;;;23.85;21.48;;;13.70;99.90;;;;;;5015752;28;20215;-92
2022/10/17 07:58:54;;;;;;;24.25;21.67;;;13.80;99.90;;;;;;5015563;28;20229;-93
2022/10/17 08:01:22;;;;;;;23.20;20.88;;;13.90;99.90;;;;;;5016472;28;20211;-92
2022/10/17 08:03:50;;;;;;;27.63;22.92;;;14.00;99.90;;;;;;5016517;28;20217;-93
2022/10/17 08:06:18;;;;;;;24.20;20.50;;;14.10;99.90;;;;;;5015789;28;20202;-88
2022/10/17 08:08:47;;;;;;;25.60;21.83;;;14.20;99.90;;;;;;5014818;28;20242;-88
2022/10/17 08:11:16;;;;;;;23.15;20.77;;;14.30;99.90;;;;;;5015750;28;20211;-88
2022/10/17 08:13:45;;;;;;;24.67;22.10;;;14.40;99.90;;;;;;5015572;28;20199;-93
2022/10/17 08:16:13;;;;;;;24.83;18.83;;;14.40;99.90;;;;;;5015810;28;20230;-93
2022/10/17 08:18:46;;;;;;;28.50;19.90;;;14.60;99.90;;;;;;5015190;28;20227;-93
2022/10/17 08:21:14;;;;;;;23.55;18.75;;;14.70;99.90;;;;;;5015246;28;20211;-93
2022/10/17 08:23:42;;;;;;;23.55;21.10;;;14.80;99.90;;;;;;5015290;28;20226;-92
2022/10/17 08:26:12;;;;;;;25.75;20.85;;;14.90;99.90;;;;;;5015512;28;20211;-92
2022/10/17 08:28:42;;;;;;;30.00;20.63;;;15.00;99.90;;;;;;5015098;28;20314;-90
2022/10/17 08:31:12;;;;;;;20.90;19.05;;;15.10;99.90;;;;;;5015114;28;20298;-92
2022/10/17 08:33:41;;;;;;;20.10;18.25;;;15.20;99.90;;;;;;5015247;28;20222;-93
2022/10/17 08:36:09;;;;;;;21.40;19.30;;;15.30;99.90;;;;;;5015081;28;20227;-92
2022/10/17 08:38:41;;;;;;;21.08;19.08;;;15.40;99.90;;;;;;5014795;28;20230;-93
2022/10/17 08:41:20;;;;;;;31.30;20.10;;;15.60;99.90;;;;;;5015179;28;20219;-92
2022/10/17 08:43:59;;;;;;;21.35;19.27;;;15.80;99.90;;;;;;5016394;28;20213;-92
2022/10/17 08:46:31;;;;;;;22.65;18.27;;;16.00;99.90;;;;;;5026111;28;20211;-91
2022/10/17 08:49:02;;;;;;;26.35;19.02;;;16.20;99.90;;;;;;5015810;28;20223;-91
2022/10/17 08:51:37;;;;;;;20.48;18.42;;;16.40;99.90;;;;;;5014838;28;20214;-93
2022/10/17 08:54:13;;;;;;;22.30;19.42;;;16.60;99.90;;;;;;5014499;28;20290;-94
2022/10/17 08:56:44;;;;;;;20.90;18.73;;;16.80;99.90;;;;;;5014842;28;20230;-94
2022/10/17 08:59:23;;;;;;;21.10;18.92;;;17.00;99.90;;;;;;5014903;28;20289;-94
2022/10/17 09:02:00;;;;;;;20.42;18.38;;;17.20;99.90;;;;;;5016466;28;20225;-90
2022/10/17 09:05:00;;;;;;;21.23;18.77;;;17.40;99.90;;;;;;5027157;28;20211;-92
2022/10/17 09:07:35;;;;;;;23.17;17.92;;;17.60;99.90;;;;;;5020693;28;20250;-92
2022/10/17 09:10:14;;;;;;;24.17;18.73;;;17.80;99.90;;;;;;5028662;28;20203;-91
2022/10/17 09:12:52;;;;;;;20.42;18.02;;;18.10;99.90;;;;;;5017260;28;20199;-92
2022/10/17 09:15:37;;;;;;;18.38;16.58;;;18.30;99.90;;;;;;5014871;28;20211;-92
2022/10/17 09:18:11;;;;;;;20.23;18.23;;;18.50;99.90;;;;;;5014445;28;20229;-92
2022/10/17 09:20:44;;;;;;;17.17;15.68;;;18.80;99.90;;;;;;5014625;28;20203;-93
2022/10/17 09:23:17;;;;;;;18.50;16.42;;;19.10;99.90;;;;;;5014951;28;20203;-92
2022/10/17 09:25:48;;;;;;;19.58;17.67;;;19.40;99.90;;;;;;5014545;28;20207;-92
2022/10/17 09:28:21;;;;;;;17.45;15.68;;;19.60;99.90;;;;;;5013847;28;20223;-93
2022/10/17 09:30:59;;;;;;;18.27;16.35;;;19.90;99.90;;;;;;5014397;28;20210;-91
2022/10/17 09:33:30;;;;;;;19.17;17.33;;;20.10;99.90;;;;;;5014102;28;20214;-92
2022/10/17 09:36:20;;;;;;;17.15;15.43;;;20.20;99.90;;;;;;5014126;28;20219;-92
2022/10/17 09:38:52;;;;;;;17.67;15.90;;;20.30;99.90;;;;;;5013789;28;20226;-91
2022/10/17 09:41:23;;;;;;;17.48;15.88;;;20.30;99.90;;;;;;5014302;28;20219;-92
2022/10/17 09:44:17;;;;;;;17.55;15.93;;;20.40;99.90;;;;;;5013751;28;20210;-92
2022/10/17 09:46:59;;;;;;;18.73;16.88;;;20.30;99.90;;;;;;5013879;28;20203;-92
2022/10/17 09:49:34;;;;;;;18.88;16.88;;;20.30;99.90;;;;;;5013744;28;20205;-92
2022/10/17 09:52:06;;;;;;;22.17;19.15;;;20.40;99.90;;;;;;5013867;28;20217;-92
2022/10/17 09:54:42;;;;;;;17.75;15.98;;;20.30;99.90;;;;;;5015456;28;20270;-92
2022/10/17 09:57:12;;;;;;;21.38;18.98;;;20.40;99.90;;;;;;5021094;28;20234;-92
2022/10/17 09:59:42;;;;;;;24.70;19.88;;;20.40;99.90;;;;;;5014573;28;20215;-93
2022/10/17 10:02:24;;;;;;;22.25;19.42;;;20.50;99.90;;;;;;5014002;28;20221;-92
2022/10/17 10:04:56;;;;;;;20.58;18.48;;;20.70;99.90;;;;;;5013865;28;20207;-91
2022/10/17 10:07:38;;;;;;;19.98;17.85;;;20.90;99.90;;;;;;5013100;28;20218;-92
2022/10/17 10:10:08;;;;;;;19.10;17.13;;;21.10;99.90;;;;;;5013038;28;20223;-87
2022/10/17 10:12:39;;;;;;;20.75;18.42;;;21.50;99.90;;;;;;5013458;28;20207;-87
2022/10/17 10:15:33;;;;;;;19.23;17.38;;;21.80;99.90;;;;;;5012808;28;20214;-88
2022/10/17 10:18:24;;;;;;;21.35;19.35;;;22.20;99.90;;;;;;5013292;28;20233;-88
2022/10/17 10:21:07;;;;;;;16.95;15.23;;;22.80;99.90;;;;;;5013285;28;20211;-88
2022/10/17 10:23:38;;;;;;;20.88;16.67;;;23.10;99.90;;;;;;5012986;28;20218;-89
2022/10/17 10:26:20;;;;;;;23.42;17.10;;;23.10;99.90;;;;;;5013021;28;20246;-87
2022/10/17 10:29:07;;;;;;;21.23;16.50;;;23.40;99.90;;;;;;5012850;28;20234;-88
2022/10/17 10:31:39;;;;;;;18.02;16.42;;;23.40;99.90;;;;;;5012906;28;20211;-87
2022/10/17 10:34:19;;;;;;;17.65;15.82;;;23.40;99.90;;;;;;5012936;28;20210;-88
2022/10/17 10:36:57;;;;;;;17.90;15.55;;;23.40;99.90;;;;;;5012727;28;20233;-88
2022/10/17 10:39:36;;;;;;;18.30;16.45;;;23.80;99.90;;;;;;5012779;28;20245;-88
2022/10/17 10:42:17;;;;;;;22.30;15.27;;;24.10;99.90;;;;;;5012971;28;20268;-88
2022/10/17 10:44:46;;;;;;;16.02;14.60;;;24.30;99.90;;;;;;4995917;28;20214;-89
2022/10/17 10:47:21;;;;;;;17.35;15.57;;;24.30;99.90;;;;;;5013188;28;20218;-89
2022/10/17 10:49:53;;;;;;;15.25;13.85;;;24.40;99.90;;;;;;5013006;28;20215;-88
2022/10/17 10:52:31;;;;;;;16.95;14.93;;;24.60;99.90;;;;;;5012899;28;20223;-91
2022/10/17 10:55:09;;;;;;;16.65;15.05;;;24.80;99.90;;;;;;5013197;28;20213;-91
2022/10/17 10:57:39;;;;;;;18.58;15.85;;;25.00;99.90;;;;;;5012867;28;20306;-91
2022/10/17 11:00:16;;;;;;;15.80;14.10;;;24.90;99.90;;;;;;5012714;28;20218;-91
2022/10/17 11:02:55;;;;;;;15.68;14.23;;;24.90;99.90;;;;;;5013150;28;20210;-91
2022/10/17 11:05:36;;;;;;;15.73;14.13;;;24.90;99.90;;;;;;5017586;28;20210;-91
2022/10/17 11:08:15;;;;;;;16.42;14.45;;;24.70;99.90;;;;;;5017578;28;20226;-91
2022/10/17 11:10:59;;;;;;;17.25;15.50;;;24.70;99.90;;;;;;5013769;28;20214;-91
2022/10/17 11:13:38;;;;;;;14.57;13.18;;;24.60;99.90;;;;;;5013478;28;20227;-91
2022/10/17 11:16:22;;;;;;;15.85;14.05;;;24.90;99.90;;;;;;5012821;28;20203;-91
2022/10/17 11:18:57;;;;;;;16.42;14.88;;;25.00;99.90;;;;;;5012095;28;20231;-92
2022/10/17 11:21:34;;;;;;;15.75;14.18;;;25.00;99.90;;;;;;5012980;28;20215;-92
2022/10/17 11:24:15;;;;;;;19.65;14.57;;;25.20;99.90;;;;;;5012994;28;20207;-92
2022/10/17 11:26:57;;;;;;;16.15;14.63;;;25.30;99.90;;;;;;5012642;28;20214;-92
2022/10/17 11:29:30;;;;;;;15.32;13.93;;;25.40;99.90;;;;;;5015499;28;20298;-92
2022/10/17 11:32:05;;;;;;;14.50;13.18;;;25.40;99.90;;;;;;5016337;28;20282;-92
2022/10/17 11:34:42;;;;;;;14.88;13.32;;;25.50;99.90;;;;;;5016378;28;20219;-91
2022/10/17 11:37:17;;;;;;;14.75;11.85;;;25.50;99.90;;;;;;5015751;28;20237;-92
2022/10/17 11:39:54;;;;;;;14.27;12.98;;;25.50;99.90;;;;;;5015619;28;20233;-92
2022/10/17 11:42:26;;;;;;;14.45;13.02;;;25.50;99.90;;;;;;5016099;28;20338;-91
2022/10/17 11:45:03;;;;;;;15.40;12.93;;;25.50;99.90;;;;;;5016325;28;20207;-91
2022/10/17 11:47:38;;;;;;;13.35;11.98;;;25.60;99.90;;;;;;5016323;28;20233;-92
2022/10/17 11:50:20;;;;;;;13.43;12.02;;;26.00;99.90;;;;;;5015501;28;20202;-92
2022/10/17 11:53:14;;;;;;;12.00;10.90;;;26.50;99.90;;;;;;5015728;28;20214;-91
2022/10/17 11:55:45;;;;;;;13.75;12.40;;;26.70;99.90;;;;;;5015707;28;20202;-92
2022/10/17 11:58:35;;;;;;;12.77;11.20;;;26.30;99.90;;;;;;5015431;28;20223;-91
2022/10/17 12:01:19;;;;;;;11.50;10.57;;;26.30;99.90;;;;;;5015795;28;20215;-88
2022/10/17 12:04:12;;;;;;;14.15;12.55;;;26.20;99.90;;;;;;5015647;28;20219;-89
2022/10/17 12:07:00;;;;;;;13.85;11.90;;;25.90;99.90;;;;;;5015640;28;20257;-88
2022/10/17 12:09:37;;;;;;;13.40;12.10;;;25.90;99.90;;;;;;5015228;28;20226;-87
2022/10/17 12:12:08;;;;;;;11.98;10.93;;;25.90;99.90;;;;;;5015257;28;20219;-85
2022/10/17 12:14:44;;;;;;;13.20;11.90;;;25.70;99.90;;;;;;5015816;28;20215;-88
2022/10/17 12:17:33;;;;;;;12.93;11.13;;;25.90;99.90;;;;;;5017508;28;20234;-91
2022/10/17 12:20:34;;;;;;;17.58;12.57;;;26.00;99.90;;;;;;5015886;28;20225;-88
2022/10/17 12:23:26;;;;;;;12.00;10.82;;;26.10;99.90;;;;;;5015982;28;20203;-89
2022/10/17 12:25:58;;;;;;;12.02;10.93;;;26.30;99.90;;;;;;5015341;28;20215;-88
2022/10/17 12:28:33;;;;;;;12.77;11.25;;;26.30;99.90;;;;;;5015158;28;20278;-88
2022/10/17 12:31:04;;;;;;;13.52;12.15;;;26.60;99.90;;;;;;5015040;28;20215;-89
2022/10/17 12:33:35;;;;;;;25.35;11.50;;;26.40;99.90;;;;;;5015286;28;20207;-89
2022/10/17 12:36:41;;;;;;;11.73;10.57;;;26.20;99.90;;;;;;5015137;28;20214;-89
2022/10/17 12:39:44;;;;;;;13.63;11.65;;;26.30;99.90;;;;;;4983700;28;20231;-88
2022/10/17 12:42:50;;;;;;;11.55;10.35;;;26.30;99.90;;;;;;5014696;28;20215;-89
2022/10/17 12:45:51;;;;;;;12.07;10.70;;;26.30;99.90;;;;;;5015009;28;20217;-88
2022/10/17 12:49:11;;;;;;;18.20;9.95;;;26.30;99.90;;;;;;5015120;28;20222;-89
2022/10/17 12:52:05;;;;;;;10.63;9.70;;;26.60;99.90;;;;;;5014767;28;20214;-88
2022/10/17 12:54:40;;;;;;;10.52;9.48;;;26.60;99.90;;;;;;5014722;28;20266;-88
2022/10/17 12:57:33;;;;;;;11.05;10.13;;;26.50;99.90;;;;;;5014557;28;20227;-88
2022/10/17 13:00:05;;;;;;;10.95;9.88;;;26.50;99.90;;;;;;5014400;28;20214;-88